createdAt,value
2019-03-24T00:01:07.649Z,99.90
2019-03-24T00:03:38.022Z,99.90
2019-03-24T00:06:08.442Z,99.90
2019-03-24T00:08:38.827Z,99.90
2019-03-24T00:11:10.703Z,99.90
2019-03-24T00:13:41.129Z,99.90
2019-03-24T00:16:11.536Z,99.90
2019-03-24T00:18:41.913Z,99.90
2019-03-24T00:21:12.343Z,99.90
2019-03-24T00:23:42.763Z,99.90
2019-03-24T00:26:13.776Z,99.90
2019-03-24T00:28:44.128Z,99.90
2019-03-24T00:31:14.551Z,99.90
2019-03-24T00:33:44.928Z,99.90
2019-03-24T00:36:15.456Z,99.90
2019-03-24T00:38:45.861Z,99.90
2019-03-24T00:41:16.374Z,99.90
2019-03-24T00:43:46.739Z,99.90
2019-03-24T00:46:17.182Z,99.90
2019-03-24T00:48:47.563Z,99.90
2019-03-24T00:51:18.021Z,99.90
2019-03-24T00:53:48.398Z,99.90
2019-03-24T00:56:18.847Z,99.90
2019-03-24T00:58:49.295Z,99.90
2019-03-24T01:01:19.872Z,99.90
2019-03-24T01:03:50.226Z,99.90
2019-03-24T01:06:20.614Z,99.90
2019-03-24T01:08:51.015Z,99.90
2019-03-24T01:11:21.420Z,99.90
2019-03-24T01:13:51.779Z,99.90
2019-03-24T01:16:22.235Z,99.90
2019-03-24T01:18:52.594Z,99.90
2019-03-24T01:21:23.043Z,99.90
2019-03-24T01:23:53.417Z,99.90
2019-03-24T01:26:23.894Z,99.90
2019-03-24T01:28:54.299Z,99.90
2019-03-24T01:31:24.728Z,99.90
2019-03-24T01:33:55.154Z,99.90
2019-03-24T01:36:25.617Z,99.90
2019-03-24T01:38:56.245Z,99.90
2019-03-24T01:41:26.664Z,99.90
2019-03-24T01:43:57.139Z,99.90
2019-03-24T01:46:27.529Z,99.90
2019-03-24T01:48:58.011Z,99.90
2019-03-24T01:51:28.465Z,99.90
2019-03-24T01:53:58.926Z,99.90
2019-03-24T01:56:29.296Z,99.90
2019-03-24T01:58:59.695Z,99.90
2019-03-24T02:01:30.112Z,99.90
2019-03-24T02:04:00.521Z,99.90
2019-03-24T02:06:30.906Z,99.90
2019-03-24T02:09:01.344Z,99.90
2019-03-24T02:11:31.730Z,99.90
2019-03-24T02:14:02.155Z,99.90
2019-03-24T02:16:32.479Z,99.90
2019-03-24T02:19:02.932Z,99.90
2019-03-24T02:21:33.305Z,99.90
2019-03-24T02:24:04.164Z,99.90
2019-03-24T02:26:34.538Z,99.90
2019-03-24T02:29:04.944Z,99.90
2019-03-24T02:31:35.321Z,99.80
2019-03-24T02:34:05.614Z,99.90
2019-03-24T02:36:36.186Z,99.90
2019-03-24T02:39:08.076Z,99.90
2019-03-24T02:41:38.508Z,99.90
2019-03-24T02:44:08.868Z,99.90
2019-03-24T02:46:39.248Z,99.90
2019-03-24T02:49:09.719Z,99.90
2019-03-24T02:51:40.152Z,99.90
2019-03-24T02:54:10.576Z,99.90
2019-03-24T02:56:40.971Z,99.90
2019-03-24T02:59:11.382Z,99.90
2019-03-24T03:01:41.797Z,99.80
2019-03-24T03:04:12.185Z,99.70
2019-03-24T03:06:42.556Z,99.90
2019-03-24T03:09:12.993Z,99.80
2019-03-24T03:11:43.348Z,99.90
2019-03-24T03:14:13.746Z,99.90
2019-03-24T03:16:44.205Z,99.90
2019-03-24T03:19:14.582Z,99.90
2019-03-24T03:21:45.019Z,99.70
2019-03-24T03:24:15.437Z,99.90
2019-03-24T03:26:45.867Z,99.70
2019-03-24T03:29:16.269Z,99.70
2019-03-24T03:31:46.663Z,99.70
2019-03-24T03:34:18.613Z,99.80
2019-03-24T03:36:49.181Z,99.70
2019-03-24T03:39:19.577Z,99.70
2019-03-24T03:41:49.993Z,99.70
2019-03-24T03:44:20.420Z,99.70
2019-03-24T03:46:52.947Z,99.70
2019-03-24T03:49:22.902Z,99.60
2019-03-24T03:51:53.329Z,99.60
2019-03-24T03:54:23.828Z,99.50
2019-03-24T03:56:54.230Z,99.40
2019-03-24T03:59:24.643Z,99.30
2019-03-24T04:01:55.044Z,99.40
2019-03-24T04:04:25.437Z,99.50
2019-03-24T04:06:55.830Z,99.40
2019-03-24T04:09:26.215Z,99.50
2019-03-24T04:11:56.588Z,99.30
2019-03-24T04:14:27.069Z,99.40
2019-03-24T04:17:06.814Z,99.50
2019-03-24T04:19:30.931Z,99.30
2019-03-24T04:22:01.323Z,99.40
2019-03-24T04:24:31.754Z,99.40
2019-03-24T04:27:02.149Z,99.20
2019-03-24T04:29:32.576Z,99.20
2019-03-24T04:32:03.047Z,99.10
2019-03-24T04:34:33.388Z,98.90
2019-03-24T04:37:03.906Z,98.60
2019-03-24T04:39:34.264Z,98.70
2019-03-24T04:42:04.647Z,98.60
2019-03-24T04:44:35.103Z,98.40
2019-03-24T04:47:05.499Z,98.30
2019-03-24T04:49:36.032Z,98.30
2019-03-24T04:52:06.485Z,98.10
2019-03-24T04:54:36.912Z,98.30
2019-03-24T04:57:07.316Z,97.90
2019-03-24T04:59:37.684Z,97.70
2019-03-24T05:02:08.127Z,97.50
2019-03-24T05:04:38.545Z,97.10
2019-03-24T05:07:10.792Z,96.90
2019-03-24T05:09:42.850Z,97.20
2019-03-24T05:12:13.350Z,97.60
2019-03-24T05:14:43.718Z,97.30
2019-03-24T05:17:14.157Z,97.10
2019-03-24T05:19:44.609Z,97.00
2019-03-24T05:22:15.090Z,97.10
2019-03-24T05:24:45.420Z,96.70
2019-03-24T05:27:15.915Z,96.70
2019-03-24T05:29:46.321Z,96.10
2019-03-24T05:32:16.700Z,95.70
2019-03-24T05:34:47.095Z,96.00
2019-03-24T05:37:17.591Z,96.00
2019-03-24T05:39:48.016Z,95.70
2019-03-24T05:42:22.676Z,95.20
2019-03-24T05:44:53.188Z,94.50
2019-03-24T05:47:23.698Z,93.90
2019-03-24T05:49:54.018Z,94.30
2019-03-24T05:52:24.496Z,94.00
2019-03-24T05:54:54.819Z,94.00
2019-03-24T05:57:25.256Z,94.20
2019-03-24T05:59:55.680Z,94.00
2019-03-24T06:02:33.731Z,94.00
2019-03-24T06:05:05.342Z,93.70
2019-03-24T06:07:37.260Z,93.70
2019-03-24T06:10:08.246Z,93.60
2019-03-24T06:12:40.522Z,93.80
2019-03-24T06:15:11.076Z,93.10
2019-03-24T06:17:47.870Z,93.10
2019-03-24T06:20:13.744Z,93.30
2019-03-24T06:22:44.195Z,92.80
2019-03-24T06:25:16.054Z,92.40
2019-03-24T06:27:46.511Z,92.40
2019-03-24T06:30:20.151Z,92.00
2019-03-24T06:32:50.692Z,91.60
2019-03-24T06:35:21.312Z,91.50
2019-03-24T06:37:53.844Z,91.80
2019-03-24T06:40:26.937Z,91.90
2019-03-24T06:42:57.379Z,91.40
2019-03-24T06:45:28.885Z,91.70
2019-03-24T06:47:59.615Z,91.70
2019-03-24T06:50:30.017Z,91.80
2019-03-24T06:53:00.445Z,91.30
2019-03-24T06:55:30.908Z,90.30
2019-03-24T06:58:03.695Z,90.10
2019-03-24T07:00:40.962Z,89.20
2019-03-24T07:03:12.850Z,89.60
2019-03-24T07:05:46.024Z,87.90
2019-03-24T07:08:16.483Z,87.40
2019-03-24T07:10:46.979Z,89.10
2019-03-24T07:13:17.403Z,89.90
2019-03-24T07:15:49.297Z,88.50
2019-03-24T07:18:19.709Z,88.80
2019-03-24T07:20:50.167Z,88.80
2019-03-24T07:23:20.687Z,87.40
2019-03-24T07:25:51.936Z,86.30
2019-03-24T07:28:22.341Z,84.30
2019-03-24T07:30:52.853Z,83.00
2019-03-24T07:33:23.303Z,81.70
2019-03-24T07:35:53.789Z,80.70
2019-03-24T07:38:24.226Z,78.70
2019-03-24T07:40:54.665Z,80.40
2019-03-24T07:43:25.160Z,82.10
2019-03-24T07:45:55.528Z,79.20
2019-03-24T07:48:25.988Z,80.30
2019-03-24T07:50:56.356Z,79.90
2019-03-24T07:53:26.807Z,81.10
2019-03-24T07:55:57.293Z,81.60
2019-03-24T07:58:27.741Z,83.40
2019-03-24T08:01:01.635Z,82.80
2019-03-24T08:03:32.141Z,83.70
2019-03-24T08:06:02.718Z,80.60
2019-03-24T08:08:33.123Z,80.20
2019-03-24T08:11:03.814Z,80.90
2019-03-24T08:13:34.248Z,81.60
2019-03-24T08:16:04.671Z,82.90
2019-03-24T08:18:36.798Z,81.60
2019-03-24T08:21:08.988Z,81.30
2019-03-24T08:23:39.676Z,79.70
2019-03-24T08:26:10.079Z,78.50
2019-03-24T08:28:40.495Z,78.30
2019-03-24T08:31:10.913Z,78.00
2019-03-24T08:33:41.321Z,77.60
2019-03-24T08:36:11.741Z,78.30
2019-03-24T08:38:42.210Z,79.30
2019-03-24T08:41:12.819Z,80.60
2019-03-24T08:43:43.339Z,81.30
2019-03-24T08:46:13.773Z,81.00
2019-03-24T08:48:44.425Z,79.00
2019-03-24T08:51:16.259Z,78.00
2019-03-24T08:53:46.729Z,75.20
2019-03-24T08:56:17.100Z,73.50
2019-03-24T08:58:47.651Z,72.60
2019-03-24T09:01:18.027Z,72.30
2019-03-24T09:03:48.486Z,71.50
2019-03-24T09:06:19.717Z,72.00
2019-03-24T09:08:50.246Z,70.00
2019-03-24T09:11:30.621Z,69.80
2019-03-24T09:13:52.727Z,69.60
2019-03-24T09:16:23.112Z,69.70
2019-03-24T09:18:53.613Z,70.40
2019-03-24T09:21:23.994Z,70.00
2019-03-24T09:23:54.530Z,68.20
2019-03-24T09:26:25.008Z,66.10
2019-03-24T09:28:55.466Z,65.60
2019-03-24T09:31:25.951Z,65.00
2019-03-24T09:33:56.370Z,65.70
2019-03-24T09:36:26.963Z,66.60
2019-03-24T09:38:57.565Z,67.60
2019-03-24T09:41:27.917Z,65.40
2019-03-24T09:43:58.364Z,64.30
2019-03-24T09:46:28.793Z,64.30
2019-03-24T09:49:03.359Z,64.80
2019-03-24T09:51:31.162Z,61.00
2019-03-24T09:54:01.576Z,61.30
2019-03-24T09:56:32.129Z,60.20
2019-03-24T09:59:02.690Z,61.80
2019-03-24T10:01:36.137Z,62.70
2019-03-24T10:04:06.562Z,61.10
2019-03-24T10:06:37.034Z,64.20
2019-03-24T10:09:07.618Z,63.30
2019-03-24T10:11:38.074Z,64.80
2019-03-24T10:14:08.526Z,62.80
2019-03-24T10:16:38.997Z,62.40
2019-03-24T10:19:13.921Z,62.30
2019-03-24T10:21:41.606Z,65.80
2019-03-24T10:24:12.074Z,67.10
2019-03-24T10:26:42.533Z,68.00
2019-03-24T10:29:13.108Z,66.00
2019-03-24T10:31:43.550Z,65.30
2019-03-24T10:34:13.983Z,63.80
2019-03-24T10:36:44.371Z,61.30
2019-03-24T10:39:15.009Z,61.20
2019-03-24T10:41:45.439Z,62.40
2019-03-24T10:44:15.884Z,60.60
2019-03-24T10:46:46.296Z,59.30
2019-03-24T10:49:24.404Z,59.90
2019-03-24T10:51:48.753Z,63.00
2019-03-24T10:54:19.232Z,65.20
2019-03-24T10:56:49.680Z,61.00
2019-03-24T10:59:20.105Z,61.00
2019-03-24T11:01:50.502Z,58.90
2019-03-24T11:04:20.901Z,58.50
2019-03-24T11:06:51.350Z,58.40
2019-03-24T11:09:21.770Z,59.00
2019-03-24T11:11:52.349Z,59.80
2019-03-24T11:14:22.750Z,60.20
2019-03-24T11:16:53.312Z,60.90
2019-03-24T11:19:23.775Z,59.10
2019-03-24T11:21:54.303Z,60.20
2019-03-24T11:24:24.676Z,58.90
2019-03-24T11:26:55.152Z,59.70
2019-03-24T11:29:25.586Z,59.20
2019-03-24T11:31:56.007Z,60.00
2019-03-24T11:34:26.495Z,59.70
2019-03-24T11:36:56.872Z,60.20
2019-03-24T11:39:30.268Z,58.30
2019-03-24T11:42:00.658Z,59.90
2019-03-24T11:44:31.195Z,59.10
2019-03-24T11:47:01.642Z,59.10
2019-03-24T11:49:32.100Z,57.40
2019-03-24T11:52:02.660Z,58.50
2019-03-24T11:54:33.122Z,57.60
2019-03-24T11:57:04.033Z,58.60
2019-03-24T11:59:34.516Z,57.90
2019-03-24T12:02:05.017Z,58.50
2019-03-24T12:04:35.592Z,58.70
2019-03-24T12:07:05.991Z,59.60
2019-03-24T12:09:36.536Z,58.60
2019-03-24T12:12:09.523Z,59.20
2019-03-24T12:14:43.068Z,60.30
2019-03-24T12:17:16.345Z,61.80
2019-03-24T12:19:56.719Z,57.80
2019-03-24T12:22:21.705Z,57.10
2019-03-24T12:24:52.311Z,55.90
2019-03-24T12:27:22.800Z,55.50
2019-03-24T12:29:55.937Z,57.00
2019-03-24T12:32:26.400Z,57.00
2019-03-24T12:34:56.809Z,57.60
2019-03-24T12:37:27.247Z,58.20
2019-03-24T12:39:58.172Z,58.80
2019-03-24T12:42:31.175Z,59.40
2019-03-24T12:45:01.669Z,59.00
2019-03-24T12:47:32.078Z,59.80
2019-03-24T12:50:08.732Z,57.60
2019-03-24T12:52:39.389Z,56.20
2019-03-24T12:55:10.410Z,54.40
2019-03-24T12:57:40.777Z,53.30
2019-03-24T13:00:13.005Z,53.70
2019-03-24T13:02:43.457Z,52.80
2019-03-24T13:05:14.270Z,53.10
2019-03-24T13:07:44.687Z,53.90
2019-03-24T13:10:15.115Z,53.60
2019-03-24T13:12:45.626Z,55.10
2019-03-24T13:15:16.151Z,56.40
2019-03-24T13:17:47.624Z,55.40
2019-03-24T13:20:27.889Z,56.00
2019-03-24T13:22:50.102Z,56.10
2019-03-24T13:25:22.047Z,56.70
2019-03-24T13:27:52.596Z,57.70
2019-03-24T13:30:23.246Z,58.70
2019-03-24T13:32:53.777Z,59.80
2019-03-24T13:35:24.333Z,59.90
2019-03-24T13:43:57.363Z,60.40
2019-03-24T13:46:27.839Z,60.60
2019-03-24T13:49:00.032Z,60.80
2019-03-24T13:51:30.651Z,60.80
2019-03-24T13:54:07.363Z,62.40
2019-03-24T13:56:40.809Z,62.80
2019-03-24T13:59:11.267Z,63.90
2019-03-24T14:01:41.866Z,64.70
2019-03-24T14:04:12.285Z,64.90
2019-03-24T14:06:42.774Z,65.30
2019-03-24T14:09:13.862Z,65.80
2019-03-24T14:11:44.364Z,66.40
2019-03-24T14:14:14.738Z,66.50
2019-03-24T14:16:46.633Z,66.90
2019-03-24T14:19:17.479Z,67.70
2019-03-24T14:21:47.871Z,68.50
2019-03-24T14:24:18.618Z,68.80
2019-03-24T14:26:49.129Z,68.80
2019-03-24T14:29:19.677Z,69.00
2019-03-24T14:31:50.134Z,69.20
2019-03-24T14:34:24.124Z,69.40
2019-03-24T14:36:54.703Z,70.20
2019-03-24T14:39:25.203Z,70.30
2019-03-24T14:41:55.711Z,71.20
2019-03-24T14:44:26.316Z,71.00
2019-03-24T14:46:56.915Z,71.10
2019-03-24T14:49:27.434Z,72.30
2019-03-24T14:51:57.871Z,71.80
2019-03-24T14:54:28.423Z,72.40
2019-03-24T14:56:58.887Z,72.10
2019-03-24T14:59:29.415Z,72.60
2019-03-24T15:01:59.801Z,73.00
2019-03-24T15:04:30.308Z,72.80
2019-03-24T15:07:00.695Z,73.90
2019-03-24T15:09:31.180Z,75.20
2019-03-24T15:12:01.576Z,75.00
2019-03-24T15:14:32.031Z,75.10
2019-03-24T15:17:02.497Z,75.50
2019-03-24T15:19:32.885Z,75.40
2019-03-24T15:22:03.777Z,75.40
2019-03-24T15:24:34.245Z,75.50
2019-03-24T15:27:04.727Z,75.60
2019-03-24T15:29:35.136Z,76.70
2019-03-24T15:32:05.591Z,76.00
2019-03-24T15:34:35.986Z,76.80
2019-03-24T15:37:06.525Z,75.90
2019-03-24T15:39:37.013Z,75.70
2019-03-24T15:42:07.562Z,75.60
2019-03-24T15:44:38.067Z,75.80
2019-03-24T15:47:08.618Z,76.10
2019-03-24T15:49:39.283Z,77.10
2019-03-24T15:52:09.789Z,77.90
2019-03-24T15:54:41.499Z,78.20
2019-03-24T15:57:13.452Z,78.10
2019-03-24T15:59:44.190Z,77.40
2019-03-24T16:02:17.667Z,78.20
2019-03-24T16:04:48.165Z,77.60
2019-03-24T16:07:18.597Z,77.80
2019-03-24T16:09:49.287Z,78.00
2019-03-24T16:12:20.548Z,78.90
2019-03-24T16:14:57.936Z,78.50
2019-03-24T16:17:28.349Z,78.60
2019-03-24T16:20:01.588Z,78.90
2019-03-24T16:22:35.176Z,79.30
2019-03-24T16:25:11.556Z,79.50
2019-03-24T16:27:41.970Z,80.20
2019-03-24T16:30:12.939Z,80.40
2019-03-24T16:32:43.351Z,80.80
2019-03-24T16:35:13.781Z,80.70
2019-03-24T16:37:47.144Z,80.80
2019-03-24T16:40:17.648Z,80.60
2019-03-24T16:42:50.168Z,80.40
2019-03-24T16:45:23.310Z,81.00
2019-03-24T16:47:57.831Z,81.00
2019-03-24T16:50:28.680Z,81.20
2019-03-24T16:52:59.320Z,81.00
2019-03-24T16:55:29.753Z,81.60
2019-03-24T16:58:00.673Z,81.60
2019-03-24T17:00:31.204Z,80.90
2019-03-24T17:03:01.807Z,81.10
2019-03-24T17:05:32.376Z,81.60
2019-03-24T17:08:04.359Z,81.60
2019-03-24T17:10:34.787Z,82.60
2019-03-24T17:13:05.314Z,82.60
2019-03-24T17:15:37.640Z,82.40
2019-03-24T17:18:08.168Z,82.30
2019-03-24T17:20:38.631Z,82.70
2019-03-24T17:23:11.574Z,82.50
2019-03-24T17:25:42.062Z,82.40
2019-03-24T17:28:12.686Z,82.80
2019-03-24T17:30:44.749Z,83.40
2019-03-24T17:33:15.264Z,83.60
2019-03-24T17:35:45.744Z,83.60
2019-03-24T17:38:16.180Z,83.60
2019-03-24T17:40:46.652Z,84.00
2019-03-24T17:43:17.158Z,84.20
2019-03-24T17:45:47.810Z,84.40
2019-03-24T17:48:18.214Z,84.80
2019-03-24T17:50:51.853Z,85.30
2019-03-24T17:53:24.539Z,85.40
2019-03-24T17:55:54.929Z,85.50
2019-03-24T17:58:25.409Z,85.80
2019-03-24T18:00:57.421Z,85.80
2019-03-24T18:03:30.993Z,86.00
2019-03-24T18:06:04.449Z,86.20
2019-03-24T18:08:34.963Z,86.30
2019-03-24T18:11:09.386Z,86.70
2019-03-24T18:13:39.889Z,86.80
2019-03-24T18:16:10.344Z,86.90
2019-03-24T18:18:47.855Z,86.80
2019-03-24T18:21:20.280Z,86.70
2019-03-24T18:23:52.308Z,86.80
2019-03-24T18:26:25.981Z,87.30
2019-03-24T18:28:57.026Z,87.60
2019-03-24T18:31:27.475Z,87.60
2019-03-24T18:33:57.920Z,87.90
2019-03-24T18:36:31.438Z,87.70
2019-03-24T18:39:02.963Z,87.80
2019-03-24T18:41:37.955Z,88.10
2019-03-24T18:44:08.771Z,88.20
2019-03-24T18:46:40.819Z,87.90
2019-03-24T18:49:11.230Z,88.20
2019-03-24T18:51:44.371Z,88.10
2019-03-24T18:54:14.945Z,87.80
2019-03-24T18:56:49.494Z,88.10
2019-03-24T18:59:20.050Z,88.00
2019-03-24T19:01:50.598Z,88.80
2019-03-24T19:04:21.055Z,88.60
2019-03-24T19:06:51.591Z,88.40
2019-03-24T19:09:21.995Z,88.30
2019-03-24T19:11:53.423Z,88.60
2019-03-24T19:14:23.859Z,89.20
2019-03-24T19:16:54.451Z,89.30
2019-03-24T19:19:24.847Z,88.80
2019-03-24T19:21:55.295Z,88.30
2019-03-24T19:24:25.974Z,87.60
2019-03-24T19:26:56.432Z,86.80
2019-03-24T19:29:26.902Z,85.80
2019-03-24T19:31:58.236Z,86.10
2019-03-24T19:34:28.673Z,87.20
2019-03-24T19:36:59.221Z,86.50
2019-03-24T19:39:30.728Z,84.40
2019-03-24T19:42:04.732Z,83.30
2019-03-24T19:44:38.421Z,83.80
2019-03-24T19:47:09.993Z,84.30
2019-03-24T19:49:40.418Z,84.10
2019-03-24T19:52:10.906Z,83.70
2019-03-24T19:54:41.383Z,83.90
2019-03-24T19:57:11.833Z,83.40
2019-03-24T19:59:42.219Z,82.80
2019-03-24T20:02:12.751Z,82.50
2019-03-24T20:04:43.235Z,82.90
2019-03-24T20:07:13.740Z,83.00
2019-03-24T20:09:44.169Z,82.90
2019-03-24T20:12:15.925Z,83.00
2019-03-24T20:14:47.867Z,83.00
2019-03-24T20:17:18.371Z,82.90
2019-03-24T20:19:48.759Z,83.20
2019-03-24T20:22:19.158Z,83.00
2019-03-24T20:24:51.244Z,83.00
2019-03-24T20:27:21.682Z,83.40
2019-03-24T20:29:52.146Z,83.70
2019-03-24T20:32:22.556Z,84.10
2019-03-24T20:34:52.997Z,84.00
2019-03-24T20:37:23.462Z,83.80
2019-03-24T20:39:55.528Z,84.60
2019-03-24T20:42:25.898Z,84.00
2019-03-24T20:44:56.275Z,84.20
2019-03-24T20:47:30.031Z,84.60
2019-03-24T20:50:00.404Z,84.10
2019-03-24T20:52:30.913Z,84.60
2019-03-24T20:55:01.335Z,84.00
2019-03-24T20:57:31.920Z,84.20
2019-03-24T21:00:03.028Z,84.10
2019-03-24T21:02:33.481Z,84.70
2019-03-24T21:05:05.311Z,85.00
2019-03-24T21:07:35.708Z,85.30
2019-03-24T21:10:07.823Z,85.40
2019-03-24T21:12:38.232Z,85.90
2019-03-24T21:15:11.273Z,85.90
2019-03-24T21:17:41.306Z,86.00
2019-03-24T21:20:11.836Z,86.40
2019-03-24T21:22:42.417Z,86.90
2019-03-24T21:25:12.968Z,87.10
2019-03-24T21:27:43.458Z,87.80
2019-03-24T21:30:15.439Z,88.30
2019-03-24T21:32:45.879Z,88.20
2019-03-24T21:35:16.337Z,88.90
2019-03-24T21:37:46.715Z,89.70
2019-03-24T21:40:18.651Z,89.80
2019-03-24T21:42:49.226Z,89.60
2019-03-24T21:45:22.900Z,89.30
2019-03-24T21:47:56.563Z,89.80
2019-03-24T21:50:27.023Z,90.10
2019-03-24T21:52:57.445Z,90.20
2019-03-24T21:55:28.052Z,90.40
2019-03-24T21:57:58.541Z,90.40
2019-03-24T22:00:32.065Z,90.50
2019-03-24T22:03:02.443Z,90.40
2019-03-24T22:05:34.479Z,90.30
2019-03-24T22:08:05.025Z,90.20
2019-03-24T22:10:35.524Z,90.10
2019-03-24T22:13:06.059Z,91.10
2019-03-24T22:15:36.473Z,90.20
2019-03-24T22:18:07.114Z,88.40
2019-03-24T22:20:48.264Z,87.10
2019-03-24T22:23:11.150Z,85.40
2019-03-24T22:25:42.973Z,85.40
2019-03-24T22:28:13.353Z,85.50
2019-03-24T22:30:43.824Z,85.60
2019-03-24T22:33:14.153Z,85.00
2019-03-24T22:35:47.056Z,86.70
2019-03-24T22:38:16.565Z,88.50
2019-03-24T22:40:46.971Z,89.40
2019-03-24T22:43:17.351Z,90.20
2019-03-24T22:45:47.738Z,90.30
2019-03-24T22:48:18.266Z,90.50
2019-03-24T22:50:48.721Z,90.60
2019-03-24T22:53:19.201Z,90.60
2019-03-24T22:55:51.252Z,90.30
2019-03-24T22:58:21.647Z,90.50
2019-03-24T23:00:54.732Z,90.50
2019-03-24T23:03:25.621Z,90.70
2019-03-24T23:05:56.324Z,90.90
2019-03-24T23:08:26.957Z,90.90
2019-03-24T23:10:57.308Z,91.00
2019-03-24T23:13:27.756Z,91.10
2019-03-24T23:15:58.125Z,91.10
2019-03-24T23:18:28.593Z,91.40
2019-03-24T23:20:59.082Z,91.70
2019-03-24T23:23:29.490Z,91.70
2019-03-24T23:25:59.886Z,91.50
2019-03-24T23:28:30.324Z,91.80
2019-03-24T23:31:00.802Z,91.90
2019-03-24T23:33:31.244Z,91.90
2019-03-24T23:36:01.640Z,92.10
2019-03-24T23:38:32.040Z,92.50
2019-03-24T23:41:02.553Z,92.70
2019-03-24T23:43:32.999Z,92.70
2019-03-24T23:46:03.426Z,92.70
2019-03-24T23:48:33.954Z,92.90
2019-03-24T23:51:04.369Z,93.20
2019-03-24T23:53:34.790Z,93.70
2019-03-24T23:56:05.316Z,93.90
2019-03-24T23:58:40.653Z,94.10
